Time;durP1;ratioP1;P1;durP2;ratioP2;P2;SDS_P1;SDS_P2;PMS_P1;PMS_P2;Temp;Humidity;BMP_temperature;BMP_pressure;BME280_temperature;BME280_humidity;BME280_pressure;Samples;Min_cycle;Max_cycle;Signal;HPM_P1;HPM_P2
2021/07/25 15:46:21;;;;;;;1.20;1.10;;;;;;;26.30;52.21;97901.16;5090732;27;20390;-84
2021/07/25 15:48:48;;;;;;;1.75;1.65;;;;;;;31.35;38.80;97886.19;5082353;28;20040;-83
2021/07/25 15:51:14;;;;;;;3.05;1.92;;;;;;;32.75;34.95;97893.59;5088898;28;20528;-84
2021/07/25 15:53:41;;;;;;;2.03;1.83;;;;;;;35.11;30.80;97876.63;5092678;28;20048;-81
2021/07/25 15:56:07;;;;;;;2.05;1.95;;;;;;;36.15;28.65;97880.13;5085519;28;20492;-82
2021/07/25 15:58:33;;;;;;;1.70;1.60;;;;;;;37.05;27.89;97879.34;5085546;28;20472;-82
2021/07/25 16:00:59;;;;;;;1.85;1.75;;;;;;;37.17;26.36;97884.50;5076661;28;20032;-82
2021/07/25 16:03:25;;;;;;;1.50;1.40;;;;;;;37.63;26.15;97877.97;5089113;28;20064;-81
2021/07/25 16:05:51;;;;;;;1.98;1.77;;;;;;;37.65;26.65;97868.81;5088595;28;20044;-81
2021/07/25 16:08:17;;;;;;;2.33;1.88;;;;;;;36.79;26.31;97874.00;5088802;28;20032;-81
2021/07/25 16:10:43;;;;;;;2.22;1.73;;;;;;;35.78;28.38;97874.69;5085692;28;20038;-81
2021/07/25 16:13:09;;;;;;;2.20;1.58;;;;;;;36.93;26.89;97872.91;5086913;28;20036;-80
2021/07/25 16:15:37;;;;;;;1.90;1.80;;;;;;;37.46;26.50;97876.56;5085215;28;20046;-83
2021/07/25 16:18:03;;;;;;;2.88;2.25;;;;;;;37.07;27.36;97868.94;5083446;28;20051;-82
2021/07/25 16:20:29;;;;;;;1.73;1.63;;;;;;;37.57;25.92;97868.66;5085685;28;20040;-81
2021/07/25 16:22:55;;;;;;;1.92;1.73;;;;;;;37.53;26.29;97867.38;5084165;28;20028;-81
2021/07/25 16:25:21;;;;;;;1.95;1.85;;;;;;;38.13;25.73;97862.47;5081924;28;20033;-81
2021/07/25 16:27:47;;;;;;;1.60;1.50;;;;;;;37.68;25.67;97853.44;5080723;28;20025;-81
2021/07/25 16:30:14;;;;;;;1.63;1.52;;;;;;;36.75;27.20;97856.31;5080135;28;20043;-82
2021/07/25 16:32:40;;;;;;;1.77;1.67;;;;;;;37.61;26.50;97851.94;5080549;28;20123;-84
2021/07/25 16:35:06;;;;;;;2.08;1.83;;;;;;;38.50;25.38;97851.91;5087290;28;20461;-82
2021/07/25 16:37:33;;;;;;;2.13;1.92;;;;;;;37.71;26.20;97856.03;5083810;28;20443;-82
2021/07/25 16:40:00;;;;;;;1.75;1.65;;;;;;;38.57;26.03;97853.41;5084802;28;20029;-82
2021/07/25 16:42:26;;;;;;;3.03;1.27;;;;;;;38.04;25.85;97858.59;5083713;28;20116;-81
2021/07/25 16:44:54;;;;;;;1.73;1.38;;;;;;;37.73;26.47;97853.41;5093774;28;20147;-81
2021/07/25 16:47:21;;;;;;;2.38;1.98;;;;;;;36.98;26.62;97852.06;5092121;28;20131;-81
2021/07/25 16:49:48;;;;;;;1.80;1.70;;;;;;;37.49;26.58;97852.53;5087032;28;20044;-81
2021/07/25 16:52:14;;;;;;;2.65;1.33;;;;;;;37.36;26.14;97848.19;5085581;28;20107;-81
2021/07/25 16:54:40;;;;;;;2.25;2.05;;;;;;;36.95;26.79;97847.41;5087503;28;20048;-81
2021/07/25 16:57:06;;;;;;;1.77;1.50;;;;;;;37.35;26.95;97845.84;5068169;28;20102;-81
2021/07/25 16:59:33;;;;;;;1.70;1.60;;;;;;;37.27;26.84;97845.63;5063249;28;20037;-81
2021/07/25 17:02:02;;;;;;;2.60;1.67;;;;;;;37.58;26.07;97853.00;5066513;28;20032;-81
2021/07/25 17:04:28;;;;;;;1.50;1.40;;;;;;;37.44;25.92;97851.28;5068047;28;20049;-80
2021/07/25 17:06:54;;;;;;;1.67;1.52;;;;;;;37.24;26.51;97838.13;5065492;28;20064;-84
2021/07/25 17:09:20;;;;;;;3.58;1.58;;;;;;;37.40;26.68;97833.59;5064923;28;20037;-80
2021/07/25 17:11:46;;;;;;;1.48;1.38;;;;;;;37.61;26.05;97839.69;5062150;28;20041;-80
2021/07/25 17:14:13;;;;;;;1.40;1.30;;;;;;;37.51;26.09;97841.34;5065378;28;20056;-80
2021/07/25 17:16:39;;;;;;;1.58;1.48;;;;;;;37.68;26.28;97841.97;5065329;28;20036;-81
2021/07/25 17:19:05;;;;;;;1.23;1.13;;;;;;;37.83;25.89;97839.53;5067137;28;20093;-81
2021/07/25 17:21:31;;;;;;;2.88;1.67;;;;;;;37.90;26.27;97836.09;5059682;28;20041;-81
2021/07/25 17:23:57;;;;;;;1.30;1.20;;;;;;;38.13;25.59;97843.16;5068127;28;20032;-82
2021/07/25 17:26:24;;;;;;;3.22;1.20;;;;;;;38.18;25.33;97848.06;5066216;28;20417;-82
2021/07/25 17:28:50;;;;;;;2.05;1.48;;;;;;;37.68;26.75;97839.13;5063062;28;20032;-82
2021/07/25 17:31:16;;;;;;;1.20;1.17;;;;;;;37.65;27.08;97835.22;5060470;28;20063;-80
2021/07/25 17:33:44;;;;;;;1.50;1.27;;;;;;;37.59;26.46;97839.47;5067883;28;20032;-81
2021/07/25 17:36:14;;;;;;;1.67;1.58;;;;;;;37.63;27.19;97837.84;5066403;28;20795;-81
2021/07/25 17:38:40;;;;;;;1.45;1.35;;;;;;;37.49;26.80;97827.53;5063858;28;20045;-81
2021/07/25 17:41:16;;;;;;;1.75;1.65;;;;;;;37.49;27.15;97833.28;5063988;28;20063;-80
2021/07/25 17:43:45;;;;;;;1.60;1.45;;;;;;;37.56;26.32;97831.91;5067924;28;20025;-80
2021/07/25 17:46:15;;;;;;;1.38;1.27;;;;;;;37.60;26.93;97823.81;5069242;28;20504;-81
2021/07/25 17:48:41;;;;;;;1.80;1.70;;;;;;;37.13;27.83;97825.97;5066633;28;20509;-80
2021/07/25 17:51:07;;;;;;;3.03;1.42;;;;;;;37.21;26.64;97824.84;5067876;28;20036;-80
2021/07/25 17:53:34;;;;;;;1.50;1.40;;;;;;;37.32;26.52;97824.78;5066528;28;20029;-80
2021/07/25 17:56:00;;;;;;;1.38;1.27;;;;;;;37.20;27.20;97813.94;5065623;28;20111;-80
2021/07/25 17:58:26;;;;;;;2.67;1.05;;;;;;;37.06;27.16;97812.22;5066388;28;21611;-80
2021/07/25 18:00:52;;;;;;;1.25;1.15;;;;;;;37.11;27.08;97815.03;5063959;28;21309;-80
2021/07/25 18:03:18;;;;;;;1.52;1.30;;;;;;;36.82;27.75;97803.47;5057736;28;20071;-81
2021/07/25 18:05:44;;;;;;;1.65;1.55;;;;;;;36.52;27.73;97801.28;5064349;28;20036;-80
2021/07/25 18:08:12;;;;;;;1.65;1.55;;;;;;;36.62;27.46;97802.53;5062279;28;20388;-80
2021/07/25 18:10:41;;;;;;;1.95;1.38;;;;;;;36.80;27.28;97804.00;5066459;28;20036;-83
2021/07/25 18:13:07;;;;;;;1.52;1.42;;;;;;;36.68;27.13;97802.50;5058552;28;20036;-80
2021/07/25 18:15:33;;;;;;;2.88;1.40;;;;;;;36.71;27.24;97805.06;5074699;28;20048;-82
2021/07/25 18:17:59;;;;;;;2.13;1.35;;;;;;;36.82;26.99;97801.41;5067714;28;20017;-80
2021/07/25 18:20:25;;;;;;;1.35;1.25;;;;;;;36.68;27.43;97809.00;5069014;28;20396;-84
2021/07/25 18:22:54;;;;;;;1.70;1.30;;;;;;;36.62;27.58;97813.97;5068180;28;20074;-84
2021/07/25 18:25:21;;;;;;;1.50;1.33;;;;;;;36.66;27.26;97805.91;5066875;28;20032;-84
2021/07/25 18:27:50;;;;;;;1.55;1.42;;;;;;;36.83;26.73;97796.44;5065214;28;20032;-83
2021/07/25 18:30:17;;;;;;;1.20;1.10;;;;;;;36.93;26.92;97809.16;5067775;28;20725;-82
2021/07/25 18:32:43;;;;;;;2.03;1.20;;;;;;;36.82;27.20;97804.25;5073302;28;20032;-82
2021/07/25 18:35:09;;;;;;;1.52;1.42;;;;;;;36.81;27.39;97807.66;5077585;28;20117;-82
2021/07/25 18:37:36;;;;;;;1.30;1.20;;;;;;;36.37;27.31;97797.13;5076621;28;20156;-82
2021/07/25 18:40:02;;;;;;;2.33;1.35;;;;;;;36.14;28.10;97813.59;5066238;28;22727;-82
2021/07/25 18:42:28;;;;;;;1.50;1.40;;;;;;;36.25;28.29;97812.78;5059785;28;20029;-81
2021/07/25 18:44:54;;;;;;;1.35;1.25;;;;;;;36.15;28.15;97806.59;5061338;28;20055;-82
2021/07/25 18:47:20;;;;;;;2.05;1.70;;;;;;;36.14;27.66;97810.72;5056188;28;20033;-82
2021/07/25 18:49:46;;;;;;;1.67;1.30;;;;;;;35.92;28.02;97813.59;5062091;28;20099;-83
2021/07/25 18:52:12;;;;;;;1.52;1.42;;;;;;;35.92;28.05;97813.59;5058176;28;20806;-82
2021/07/25 18:54:38;;;;;;;2.47;1.35;;;;;;;36.06;28.22;97821.91;5066121;28;20036;-82
2021/07/25 18:57:05;;;;;;;1.30;1.20;;;;;;;35.84;28.02;97827.66;5065660;28;20422;-83
2021/07/25 18:59:31;;;;;;;2.60;1.80;;;;;;;35.56;28.32;97821.19;5063902;28;20511;-82
2021/07/25 19:01:57;;;;;;;1.95;1.20;;;;;;;35.40;29.03;97834.09;5065431;28;20040;-82
2021/07/25 19:04:23;;;;;;;1.90;1.00;;;;;;;35.57;28.57;97836.25;5065914;28;20091;-82
2021/07/25 19:06:52;;;;;;;1.98;1.30;;;;;;;35.42;28.66;97836.47;5056258;28;20065;-83
2021/07/25 19:09:19;;;;;;;1.65;1.40;;;;;;;35.32;29.05;97841.63;5062828;28;20032;-82
2021/07/25 19:11:45;;;;;;;1.95;1.38;;;;;;;35.47;28.97;97841.41;5062934;28;20388;-82
2021/07/25 19:14:13;;;;;;;1.42;1.33;;;;;;;35.60;28.24;97841.69;5058974;28;20036;-83
2021/07/25 19:16:39;;;;;;;1.77;1.20;;;;;;;35.65;28.37;97846.63;5068839;28;20037;-83
2021/07/25 19:19:05;;;;;;;1.52;1.33;;;;;;;35.64;27.91;97852.88;5069229;28;20049;-84
2021/07/25 19:21:31;;;;;;;1.42;1.33;;;;;;;35.67;27.86;97854.66;5065965;28;20035;-84
2021/07/25 19:23:58;;;;;;;1.15;1.00;;;;;;;35.67;28.19;97855.44;5063378;28;20381;-85
2021/07/25 19:26:25;;;;;;;1.55;1.38;;;;;;;35.68;28.14;97861.94;5065791;28;20044;-81
2021/07/25 19:28:52;;;;;;;2.15;1.65;;;;;;;35.35;28.63;97848.41;5061208;28;20497;-82
2021/07/25 19:31:19;;;;;;;2.30;2.10;;;;;;;35.05;29.11;97853.78;5065006;28;20024;-82
2021/07/25 19:33:46;;;;;;;2.28;1.95;;;;;;;34.51;29.88;97852.22;5059165;28;20466;-83
2021/07/25 19:36:12;;;;;;;2.65;1.88;;;;;;;33.57;31.62;97849.50;5066046;28;20094;-81
2021/07/25 19:38:40;;;;;;;2.35;1.75;;;;;;;33.11;32.45;97845.94;5062149;28;20074;-82
2021/07/25 19:41:08;;;;;;;2.38;2.17;;;;;;;33.33;32.29;97844.09;5065595;28;20451;-81
2021/07/25 19:43:35;;;;;;;1.92;1.70;;;;;;;33.71;31.36;97845.75;5060978;28;20024;-81
2021/07/25 19:46:07;;;;;;;2.13;1.92;;;;;;;34.03;30.83;97830.19;5062781;28;20111;-82
2021/07/25 19:48:36;;;;;;;3.45;2.63;;;;;;;33.81;31.36;97843.50;5063090;28;20519;-81
2021/07/25 19:51:04;;;;;;;1.98;1.77;;;;;;;33.96;30.92;97836.34;5068764;28;20029;-82
2021/07/25 19:53:31;;;;;;;3.35;2.67;;;;;;;33.83;31.26;97838.06;5068274;28;20511;-81
2021/07/25 19:55:57;;;;;;;2.25;2.05;;;;;;;33.76;31.25;97829.97;5061524;28;20768;-81
2021/07/25 19:58:23;;;;;;;3.05;2.72;;;;;;;33.24;32.50;97824.34;5067064;28;20413;-80
2021/07/25 20:00:49;;;;;;;4.13;2.55;;;;;;;33.34;32.18;97820.03;5056720;28;20116;-82
2021/07/25 20:03:27;;;;;;;4.07;2.38;;;;;;;33.53;31.71;97811.94;5068420;28;20025;-81
2021/07/25 20:05:54;;;;;;;2.75;2.20;;;;;;;33.80;31.53;97816.28;5067933;28;20036;-81
2021/07/25 20:08:21;;;;;;;3.20;2.90;;;;;;;33.57;31.85;97823.09;5057958;28;20029;-82
2021/07/25 20:10:49;;;;;;;3.47;3.17;;;;;;;33.12;32.35;97824.72;5063785;28;20029;-81
2021/07/25 20:13:16;;;;;;;5.68;2.85;;;;;;;33.24;32.54;97834.94;5062877;28;20028;-81
2021/07/25 20:15:46;;;;;;;3.88;2.60;;;;;;;33.35;32.51;97838.66;5065028;28;20051;-82
2021/07/25 20:18:12;;;;;;;3.28;2.95;;;;;;;33.27;32.39;97829.03;5059757;28;20514;-82
2021/07/25 20:20:38;;;;;;;3.08;2.72;;;;;;;33.45;32.50;97830.72;5068811;28;20103;-81
2021/07/25 20:23:07;;;;;;;3.70;3.15;;;;;;;33.10;32.68;97832.97;5067911;28;20025;-81
2021/07/25 20:25:34;;;;;;;3.20;2.03;;;;;;;33.67;31.92;97824.47;5062760;28;20060;-81
2021/07/25 20:28:00;;;;;;;3.45;2.92;;;;;;;33.39;32.26;97825.00;5065756;28;20025;-81
2021/07/25 20:30:27;;;;;;;6.28;2.83;;;;;;;32.65;33.54;97817.50;5065104;28;20027;-82
2021/07/25 20:32:53;;;;;;;4.63;2.38;;;;;;;33.63;32.16;97818.25;5071083;28;20029;-81
2021/07/25 20:35:19;;;;;;;4.90;2.38;;;;;;;34.32;30.80;97829.06;5072836;28;20028;-82
2021/07/25 20:37:45;;;;;;;3.08;2.67;;;;;;;34.28;30.76;97822.84;5064951;28;20033;-81
2021/07/25 20:40:11;;;;;;;2.92;2.05;;;;;;;34.38;30.41;97812.75;5067242;28;20035;-81
2021/07/25 20:42:41;;;;;;;3.95;3.15;;;;;;;33.86;31.30;97812.19;5065962;28;20459;-81
2021/07/25 20:45:07;;;;;;;2.33;1.88;;;;;;;33.92;31.40;97813.00;5065944;28;20404;-81
2021/07/25 20:47:34;;;;;;;3.35;3.05;;;;;;;33.77;31.55;97815.22;5065051;28;20052;-82
2021/07/25 20:50:00;;;;;;;3.20;2.80;;;;;;;33.66;31.51;97829.38;5066731;28;20028;-81
2021/07/25 20:52:30;;;;;;;4.60;2.83;;;;;;;33.61;31.90;97820.81;5065029;28;20020;-81
2021/07/25 20:54:56;;;;;;;3.53;2.65;;;;;;;33.27;32.37;97817.66;5065615;28;20033;-82
2021/07/25 20:57:22;;;;;;;3.20;2.30;;;;;;;33.38;32.28;97812.03;5067598;28;20131;-82
2021/07/25 20:59:50;;;;;;;3.05;2.67;;;;;;;33.49;32.18;97819.13;5060721;28;20053;-81
2021/07/25 21:02:18;;;;;;;5.60;3.60;;;;;;;33.08;32.46;97815.63;5071128;28;20043;-82
2021/07/25 21:04:44;;;;;;;2.35;1.83;;;;;;;33.55;32.19;97819.97;5066179;28;20100;-82
2021/07/25 21:07:10;;;;;;;2.63;1.80;;;;;;;34.14;31.01;97817.31;5062089;28;20033;-82
2021/07/25 21:09:36;;;;;;;3.60;3.05;;;;;;;33.80;31.57;97810.56;5065032;28;20036;-81
2021/07/25 21:12:02;;;;;;;3.92;3.00;;;;;;;33.26;32.45;97803.91;5073835;28;20033;-81
2021/07/25 21:14:28;;;;;;;4.60;3.20;;;;;;;33.26;32.24;97809.59;5056466;28;20037;-82
2021/07/25 21:16:54;;;;;;;2.92;2.72;;;;;;;33.39;31.96;97799.38;5070278;28;20036;-81
2021/07/25 21:19:20;;;;;;;3.55;2.20;;;;;;;33.57;31.79;97789.72;5069197;28;20044;-81
2021/07/25 21:21:46;;;;;;;4.40;3.45;;;;;;;33.60;31.92;97797.25;5059430;28;20502;-81
2021/07/25 21:24:13;;;;;;;3.15;2.33;;;;;;;33.82;31.65;97803.09;5069401;28;20039;-81
2021/07/25 21:26:39;;;;;;;5.72;3.30;;;;;;;33.58;31.81;97787.66;5070336;28;20031;-81
2021/07/25 21:29:05;;;;;;;6.15;3.33;;;;;;;33.40;32.28;97789.53;5058675;28;20481;-81
2021/07/25 21:31:32;;;;;;;3.38;3.08;;;;;;;33.20;32.40;97786.78;5065147;28;20033;-81
2021/07/25 21:33:59;;;;;;;2.15;1.95;;;;;;;33.32;32.36;97777.06;5072178;28;20491;-82
2021/07/25 21:36:25;;;;;;;3.97;2.47;;;;;;;33.17;32.52;97775.63;5075369;28;20412;-82
2021/07/25 21:38:52;;;;;;;3.08;2.28;;;;;;;33.12;33.00;97782.81;5073787;28;20037;-82
2021/07/25 21:41:18;;;;;;;7.32;3.17;;;;;;;33.01;32.66;97773.38;5073539;28;20036;-82
2021/07/25 21:43:45;;;;;;;3.90;2.90;;;;;;;33.45;32.39;97762.41;5070445;28;20033;-82
2021/07/25 21:46:12;;;;;;;3.08;2.33;;;;;;;34.07;31.00;97762.34;5069814;28;20404;-81
2021/07/25 21:48:38;;;;;;;3.95;3.00;;;;;;;33.42;32.05;97757.75;5069271;28;20108;-81
2021/07/25 21:51:04;;;;;;;2.70;2.30;;;;;;;33.58;31.86;97764.88;5070191;28;20400;-81
2021/07/25 21:53:31;;;;;;;3.05;2.75;;;;;;;33.70;31.67;97763.66;5073574;28;20029;-81
2021/07/25 21:55:57;;;;;;;3.60;3.05;;;;;;;33.02;32.91;97755.06;5072478;28;20102;-81
2021/07/25 21:58:23;;;;;;;2.67;2.40;;;;;;;33.89;31.72;97756.25;5070976;28;20086;-82
2021/07/25 22:00:50;;;;;;;3.53;3.00;;;;;;;33.77;31.54;97743.25;5071318;28;20036;-82
2021/07/25 22:03:38;;;;;;;3.72;3.35;;;;;;;32.99;32.93;97739.75;5072891;28;20073;-82
2021/07/25 22:06:14;;;;;;;2.25;2.03;;;;;;;32.83;33.26;97736.75;5072513;28;20400;-81
2021/07/25 22:08:42;;;;;;;4.53;3.60;;;;;;;32.54;33.92;97743.41;5070231;28;20120;-81
2021/07/25 22:11:15;;;;;;;2.97;2.67;;;;;;;32.61;33.60;97737.28;5073014;28;20538;-81
2021/07/25 22:13:42;;;;;;;3.05;2.08;;;;;;;33.65;31.66;97731.00;5072118;28;20036;-81
2021/07/25 22:16:08;;;;;;;3.17;2.25;;;;;;;34.56;30.39;97729.66;5072642;28;20091;-81
2021/07/25 22:18:34;;;;;;;3.72;2.95;;;;;;;34.10;30.79;97722.75;5072352;28;20043;-82
2021/07/25 22:21:02;;;;;;;3.13;2.33;;;;;;;34.05;30.98;97724.28;5069647;28;20032;-81
2021/07/25 22:23:28;;;;;;;3.45;1.73;;;;;;;34.51;30.18;97721.84;5068904;28;20028;-81
2021/07/25 22:25:54;;;;;;;2.17;1.77;;;;;;;35.13;29.25;97739.88;5069737;28;20085;-81
2021/07/25 22:28:20;;;;;;;2.70;2.08;;;;;;;35.37;28.75;97729.50;5069714;28;20032;-81
2021/07/25 22:30:46;;;;;;;2.20;2.00;;;;;;;34.85;30.06;97728.41;5069569;28;20067;-82
2021/07/25 22:33:12;;;;;;;2.08;1.70;;;;;;;35.22;29.31;97734.69;5070695;28;20384;-81
2021/07/25 22:35:40;;;;;;;2.15;1.83;;;;;;;35.39;28.93;97744.03;5069817;28;20029;-81
2021/07/25 22:38:06;;;;;;;1.80;1.70;;;;;;;35.62;28.73;97755.47;5069762;28;20032;-81
2021/07/25 22:40:32;;;;;;;2.08;1.80;;;;;;;35.62;28.07;97749.75;5070351;28;20111;-81
2021/07/25 22:42:58;;;;;;;2.67;1.95;;;;;;;35.41;28.53;97749.22;5069512;28;20109;-81
2021/07/25 22:45:24;;;;;;;2.13;1.92;;;;;;;35.45;28.50;97737.56;5068823;28;20074;-81
2021/07/25 22:47:50;;;;;;;4.20;2.28;;;;;;;35.22;29.00;97739.63;5070836;28;20036;-81
2021/07/25 22:50:17;;;;;;;2.20;2.00;;;;;;;34.78;29.83;97734.63;5069953;28;20089;-81
2021/07/25 22:52:44;;;;;;;2.30;2.10;;;;;;;35.02;29.53;97737.03;5069827;28;20549;-81
2021/07/25 22:55:11;;;;;;;2.28;1.67;;;;;;;35.42;28.53;97742.22;5070825;28;20047;-81
2021/07/25 22:57:37;;;;;;;2.05;1.70;;;;;;;35.69;28.50;97755.72;5068822;28;20463;-82
2021/07/25 23:00:04;;;;;;;1.58;1.48;;;;;;;35.82;28.33;97767.41;5070923;28;20064;-81
2021/07/25 23:02:30;;;;;;;2.45;2.25;;;;;;;35.65;28.52;97768.72;5068948;28;20392;-81
2021/07/25 23:04:58;;;;;;;3.80;2.15;;;;;;;35.36;28.77;97779.34;5068092;28;20063;-82
2021/07/25 23:07:25;;;;;;;2.20;2.00;;;;;;;34.94;29.72;97784.47;5070993;28;20032;-82
2021/07/25 23:09:52;;;;;;;3.15;1.80;;;;;;;34.50;30.10;97779.38;5069520;28;20400;-82
2021/07/25 23:12:18;;;;;;;4.13;2.85;;;;;;;33.76;31.25;97782.34;5062964;28;20036;-82
2021/07/25 23:14:44;;;;;;;2.38;2.17;;;;;;;33.75;31.42;97782.88;5071400;28;20403;-82
2021/07/25 23:17:10;;;;;;;3.97;2.13;;;;;;;33.75;31.45;97785.72;5069736;28;20535;-82
2021/07/25 23:19:36;;;;;;;1.63;1.52;;;;;;;34.18;30.93;97783.66;5062456;28;20120;-81
2021/07/25 23:22:02;;;;;;;2.70;1.83;;;;;;;34.61;30.08;97800.19;5069802;28;20115;-81
2021/07/25 23:24:28;;;;;;;1.80;1.70;;;;;;;35.02;29.45;97800.59;5069624;28;20415;-81
2021/07/25 23:26:54;;;;;;;1.58;1.48;;;;;;;35.40;29.12;97819.06;5070215;28;20318;-81
2021/07/25 23:29:20;;;;;;;1.83;1.55;;;;;;;35.63;28.85;97832.09;5069214;28;20052;-81
2021/07/25 23:31:46;;;;;;;2.63;2.42;;;;;;;35.20;29.45;97830.72;5066522;28;20412;-81
2021/07/25 23:34:12;;;;;;;3.05;2.75;;;;;;;34.35;31.29;97847.22;5067619;28;20048;-82
2021/07/25 23:36:38;;;;;;;3.70;2.90;;;;;;;33.14;33.23;97850.63;5071499;28;20021;-81
2021/07/25 23:39:06;;;;;;;4.55;3.42;;;;;;;32.64;34.03;97865.03;5069497;28;20024;-81
2021/07/25 23:41:32;;;;;;;3.28;2.92;;;;;;;32.75;34.31;97865.16;5070373;28;20027;-81
2021/07/25 23:43:58;;;;;;;3.33;2.95;;;;;;;33.20;33.83;97854.31;5068872;28;20032;-82
2021/07/25 23:46:25;;;;;;;3.45;2.00;;;;;;;33.90;32.28;97846.94;5068865;28;20415;-81
2021/07/25 23:48:51;;;;;;;2.60;2.17;;;;;;;34.48;31.36;97848.31;5070416;28;20111;-82
2021/07/25 23:51:17;;;;;;;2.85;2.63;;;;;;;34.70;30.78;97841.97;5068883;28;20036;-81
2021/07/25 23:53:43;;;;;;;2.60;2.00;;;;;;;34.86;30.33;97844.09;5069988;28;20039;-82
2021/07/25 23:56:09;;;;;;;3.95;2.03;;;;;;;34.78;30.66;97827.97;5069981;28;20048;-83
2021/07/25 23:58:35;;;;;;;2.47;2.28;;;;;;;34.51;31.35;97835.13;5068295;28;20063;-83
